createdAt,value
2018-07-10T00:01:28.482Z,76.64
2018-07-10T00:03:20.831Z,77.35
2018-07-10T00:07:17.708Z,77.92
2018-07-10T00:09:17.351Z,79.63
2018-07-10T00:11:56.630Z,80.47
2018-07-10T00:13:32.362Z,80.94
2018-07-10T00:15:16.676Z,81.18
2018-07-10T00:16:56.680Z,81.54
2018-07-10T00:18:36.746Z,81.38
2018-07-10T00:20:17.620Z,80.35
2018-07-10T00:21:53.945Z,81.33
2018-07-10T00:23:30.162Z,80.39
2018-07-10T00:25:07.220Z,81.67
2018-07-10T00:26:44.605Z,80.51
2018-07-10T00:28:23.109Z,80.89
2018-07-10T00:30:00.151Z,80.90
2018-07-10T00:31:37.107Z,80.54
2018-07-10T00:33:13.133Z,81.23
2018-07-10T00:34:53.381Z,81.05
2018-07-10T00:36:29.362Z,81.30
2018-07-10T00:38:16.131Z,80.77
2018-07-10T00:39:53.676Z,80.70
2018-07-10T00:41:32.539Z,81.00
2018-07-10T00:43:13.429Z,81.32
2018-07-10T00:44:52.142Z,81.15
2018-07-10T00:46:52.230Z,81.16
2018-07-10T00:48:46.532Z,81.02
2018-07-10T00:50:23.702Z,80.76
2018-07-10T00:51:59.186Z,81.16
2018-07-10T00:53:35.491Z,81.33
2018-07-10T00:55:11.036Z,81.40
2018-07-10T00:56:47.675Z,81.44
2018-07-10T00:58:26.458Z,80.78
2018-07-10T01:00:05.502Z,81.16
2018-07-10T01:01:42.979Z,81.26
2018-07-10T01:03:18.310Z,81.66
2018-07-10T01:04:55.480Z,81.46
2018-07-10T01:06:34.898Z,81.65
2018-07-10T01:08:10.525Z,82.21
2018-07-10T01:09:46.525Z,82.09
2018-07-10T01:11:22.367Z,81.62
2018-07-10T01:13:01.228Z,81.97
2018-07-10T01:14:36.837Z,82.22
2018-07-10T01:16:14.622Z,82.09
2018-07-10T01:17:50.241Z,82.90
2018-07-10T01:19:26.810Z,81.91
2018-07-10T01:21:02.529Z,82.24
2018-07-10T01:22:40.718Z,82.67
2018-07-10T01:24:20.808Z,82.95
2018-07-10T01:26:05.394Z,83.15
2018-07-10T01:27:41.579Z,83.73
2018-07-10T01:29:22.722Z,83.75
2018-07-10T01:30:58.351Z,83.45
2018-07-10T01:32:36.451Z,83.59
2018-07-10T01:34:13.165Z,83.73
2018-07-10T01:35:48.346Z,83.45
2018-07-10T01:37:24.036Z,83.70
2018-07-10T01:39:00.180Z,83.92
2018-07-10T01:40:35.884Z,82.79
2018-07-10T01:42:11.195Z,82.97
2018-07-10T01:43:48.198Z,83.24
2018-07-10T01:45:24.481Z,82.78
2018-07-10T01:46:59.826Z,82.70
2018-07-10T01:48:36.019Z,82.42
2018-07-10T01:50:12.341Z,82.80
2018-07-10T01:51:47.535Z,82.69
2018-07-10T01:53:22.776Z,82.07
2018-07-10T01:54:58.202Z,82.01
2018-07-10T01:56:34.750Z,82.42
2018-07-10T01:58:11.221Z,82.21
2018-07-10T01:59:46.593Z,82.09
2018-07-10T02:01:21.443Z,81.92
2018-07-10T02:02:56.303Z,82.17
2018-07-10T02:04:32.090Z,81.94
2018-07-10T02:06:07.063Z,82.26
2018-07-10T02:09:44.276Z,82.20
2018-07-10T02:11:25.204Z,81.81
2018-07-10T02:13:02.354Z,81.74
2018-07-10T02:14:41.374Z,81.52
2018-07-10T02:16:33.822Z,80.80
2018-07-10T02:18:11.775Z,81.24
2018-07-10T02:19:51.045Z,80.87
2018-07-10T02:22:00.926Z,81.02
2018-07-10T02:30:25.632Z,79.46
2018-07-10T02:32:01.539Z,79.60
2018-07-10T02:33:37.071Z,78.80
2018-07-10T02:35:13.503Z,78.85
2018-07-10T02:36:48.774Z,78.84
2018-07-10T02:38:24.512Z,78.84
2018-07-10T02:40:01.078Z,79.22
2018-07-10T02:41:36.841Z,79.08
2018-07-10T02:43:11.964Z,79.40
2018-07-10T02:44:46.972Z,79.33
2018-07-10T02:46:22.295Z,79.08
2018-07-10T02:47:57.562Z,79.50
2018-07-10T02:49:33.028Z,78.55
2018-07-10T02:51:08.797Z,79.30
2018-07-10T02:52:44.938Z,79.20
2018-07-10T02:54:22.812Z,79.31
2018-07-10T02:55:57.806Z,79.16
2018-07-10T02:57:33.368Z,79.48
2018-07-10T02:59:08.580Z,79.30
2018-07-10T03:00:43.744Z,79.17
2018-07-10T03:02:26.798Z,79.42
2018-07-10T03:04:02.044Z,79.52
2018-07-10T03:05:37.757Z,79.30
2018-07-10T03:07:15.893Z,79.88
2018-07-10T03:08:51.021Z,79.88
2018-07-10T03:10:26.395Z,80.06
2018-07-10T03:12:04.158Z,80.12
2018-07-10T03:13:40.409Z,80.58
2018-07-10T03:15:16.890Z,80.49
2018-07-10T03:16:52.296Z,80.16
2018-07-10T03:18:28.448Z,80.34
2018-07-10T03:20:06.544Z,80.20
2018-07-10T03:21:41.790Z,80.09
2018-07-10T03:23:16.833Z,80.42
2018-07-10T03:24:52.060Z,80.15
2018-07-10T03:26:27.251Z,80.74
2018-07-10T03:28:02.820Z,81.21
2018-07-10T03:29:38.268Z,81.51
2018-07-10T03:31:15.928Z,81.87
2018-07-10T03:32:51.298Z,82.30
2018-07-10T03:34:27.286Z,82.60
2018-07-10T03:36:06.619Z,82.32
2018-07-10T03:37:44.311Z,82.93
2018-07-10T03:39:19.441Z,83.17
2018-07-10T03:40:55.275Z,82.92
2018-07-10T03:42:31.263Z,83.24
2018-07-10T03:44:07.525Z,83.30
2018-07-10T03:45:43.947Z,83.15
2018-07-10T03:47:20.736Z,82.90
2018-07-10T03:48:56.972Z,83.00
2018-07-10T03:50:35.704Z,82.86
2018-07-10T03:52:18.590Z,83.08
2018-07-10T03:53:53.860Z,83.07
2018-07-10T03:55:33.353Z,82.51
2018-07-10T03:57:09.779Z,83.02
2018-07-10T03:58:50.125Z,82.91
2018-07-10T04:00:28.342Z,82.67
2018-07-10T04:02:07.793Z,82.66
2018-07-10T04:05:38.065Z,82.59
2018-07-10T04:07:13.220Z,82.51
2018-07-10T04:08:52.154Z,82.32
2018-07-10T04:10:32.334Z,82.31
2018-07-10T04:12:07.720Z,82.41
2018-07-10T04:13:44.291Z,82.26
2018-07-10T04:15:20.399Z,82.10
2018-07-10T04:16:56.028Z,82.01
2018-07-10T04:18:34.441Z,82.30
2018-07-10T04:20:11.186Z,82.23
2018-07-10T04:21:54.696Z,82.19
2018-07-10T04:23:39.498Z,81.74
2018-07-10T04:25:14.933Z,82.05
2018-07-10T04:27:29.128Z,81.90
2018-07-10T04:29:12.005Z,81.76
2018-07-10T04:30:58.936Z,81.90
2018-07-10T04:32:35.173Z,81.74
2018-07-10T04:34:11.439Z,81.96
2018-07-10T04:35:47.194Z,81.80
2018-07-10T04:37:34.736Z,81.39
2018-07-10T04:39:36.532Z,81.64
2018-07-10T04:41:26.113Z,80.68
2018-07-10T04:43:02.615Z,81.13
2018-07-10T04:44:37.978Z,80.83
2018-07-10T04:46:14.859Z,80.70
2018-07-10T04:48:00.845Z,80.77
2018-07-10T04:49:44.262Z,80.21
2018-07-10T04:51:29.743Z,80.47
2018-07-10T04:53:08.690Z,79.57
2018-07-10T04:54:48.581Z,79.88
2018-07-10T04:56:24.761Z,79.82
2018-07-10T04:58:07.940Z,79.19
2018-07-10T04:59:43.113Z,79.18
2018-07-10T05:01:18.205Z,78.66
2018-07-10T05:02:54.214Z,79.26
2018-07-10T05:04:29.972Z,79.51
2018-07-10T05:06:10.363Z,79.39
2018-07-10T05:07:45.916Z,79.56
2018-07-10T05:09:21.615Z,79.53
2018-07-10T05:11:01.520Z,79.34
2018-07-10T05:12:37.104Z,79.60
2018-07-10T05:14:13.025Z,79.30
2018-07-10T05:15:53.117Z,79.43
2018-07-10T05:17:29.154Z,79.11
2018-07-10T05:19:05.130Z,78.89
2018-07-10T05:20:44.839Z,78.48
2018-07-10T05:22:21.322Z,78.84
2018-07-10T05:24:11.543Z,78.42
2018-07-10T05:25:55.125Z,78.44
2018-07-10T05:27:33.334Z,79.07
2018-07-10T05:29:13.620Z,78.66
2018-07-10T05:30:55.161Z,78.07
2018-07-10T05:32:31.598Z,79.31
2018-07-10T05:34:09.210Z,78.67
2018-07-10T05:35:45.539Z,78.86
2018-07-10T05:37:35.945Z,78.55
2018-07-10T05:39:11.360Z,77.59
2018-07-10T05:40:46.699Z,78.19
2018-07-10T05:42:21.941Z,77.89
2018-07-10T05:44:02.824Z,77.26
2018-07-10T05:45:39.690Z,76.97
2018-07-10T05:47:14.989Z,76.70
2018-07-10T05:49:01.373Z,76.60
2018-07-10T05:50:37.340Z,76.06
2018-07-10T05:52:13.593Z,75.81
2018-07-10T05:53:50.983Z,75.71
2018-07-10T05:55:30.473Z,75.25
2018-07-10T05:57:08.961Z,74.73
2018-07-10T05:58:47.004Z,74.69
2018-07-10T06:00:23.309Z,75.01
2018-07-10T06:01:59.918Z,73.90
2018-07-10T06:03:36.469Z,73.09
2018-07-10T06:05:12.319Z,73.34
2018-07-10T06:06:49.374Z,72.81
2018-07-10T06:08:25.426Z,72.46
2018-07-10T06:10:03.283Z,73.10
2018-07-10T06:11:38.717Z,71.13
2018-07-10T06:13:14.639Z,70.58
2018-07-10T06:14:52.376Z,71.01
2018-07-10T06:16:30.284Z,70.93
2018-07-10T06:18:06.727Z,70.14
2018-07-10T06:19:42.315Z,70.43
2018-07-10T06:21:22.235Z,69.57
2018-07-10T06:22:58.646Z,69.01
2018-07-10T06:24:36.884Z,68.10
2018-07-10T06:26:14.075Z,67.99
2018-07-10T06:28:02.413Z,68.35
2018-07-10T06:30:19.549Z,69.21
2018-07-10T06:35:05.114Z,65.49
2018-07-10T06:36:48.775Z,64.59
2018-07-10T06:38:28.116Z,63.69
2018-07-10T06:40:12.202Z,62.95
2018-07-10T06:42:07.490Z,63.23
2018-07-10T06:43:50.548Z,64.44
2018-07-10T06:45:26.403Z,64.49
2018-07-10T06:47:02.702Z,64.65
2018-07-10T06:48:44.153Z,65.44
2018-07-10T06:50:23.238Z,65.53
2018-07-10T06:54:13.863Z,66.09
2018-07-10T06:58:00.126Z,66.32
2018-07-10T06:59:46.742Z,66.13
2018-07-10T07:01:24.517Z,65.28
2018-07-10T07:05:05.778Z,64.68
2018-07-10T07:06:43.448Z,64.88
2018-07-10T07:08:21.155Z,64.88
2018-07-10T07:10:01.381Z,64.80
2018-07-10T07:11:41.545Z,64.44
2018-07-10T07:13:18.841Z,64.50
2018-07-10T07:14:56.544Z,63.85
2018-07-10T07:16:34.512Z,63.85
2018-07-10T07:18:19.049Z,63.12
2018-07-10T07:19:58.509Z,63.52
2018-07-10T07:21:35.376Z,63.40
2018-07-10T07:23:13.783Z,62.09
2018-07-10T07:24:50.226Z,59.75
2018-07-10T07:26:43.435Z,59.91
2018-07-10T07:28:39.831Z,59.12
2018-07-10T07:30:23.662Z,59.70
2018-07-10T07:32:00.124Z,59.16
2018-07-10T07:33:36.675Z,60.09
2018-07-10T07:35:13.426Z,57.75
2018-07-10T07:36:49.582Z,57.19
2018-07-10T07:38:33.765Z,59.88
2018-07-10T07:40:16.085Z,58.85
2018-07-10T07:41:54.912Z,58.32
2018-07-10T07:43:35.575Z,57.83
2018-07-10T07:45:18.646Z,58.64
2018-07-10T07:46:57.836Z,57.68
2018-07-10T07:48:35.693Z,58.93
2018-07-10T07:50:13.312Z,60.00
2018-07-10T07:51:53.378Z,60.09
2018-07-10T07:53:33.313Z,59.67
2018-07-10T07:55:09.426Z,60.31
2018-07-10T07:56:48.121Z,61.39
2018-07-10T07:58:25.439Z,62.21
2018-07-10T08:00:01.294Z,61.80
2018-07-10T08:01:37.761Z,61.99
2018-07-10T08:03:15.734Z,62.72
2018-07-10T08:04:53.803Z,62.74
2018-07-10T08:06:33.457Z,63.04
2018-07-10T08:08:16.115Z,63.35
2018-07-10T08:10:19.221Z,63.97
2018-07-10T08:12:01.272Z,63.76
2018-07-10T08:13:38.255Z,63.54
2018-07-10T08:15:20.668Z,64.15
2018-07-10T08:17:02.368Z,64.48
2018-07-10T08:18:40.161Z,63.99
2018-07-10T08:20:17.653Z,65.38
2018-07-10T08:21:58.577Z,65.47
2018-07-10T08:23:34.696Z,65.13
2018-07-10T08:25:10.677Z,65.05
2018-07-10T08:26:50.325Z,65.30
2018-07-10T08:28:30.854Z,64.50
2018-07-10T08:30:14.032Z,64.12
2018-07-10T08:31:51.254Z,64.61
2018-07-10T08:33:28.616Z,64.32
2018-07-10T08:35:05.573Z,64.33
2018-07-10T08:36:41.819Z,64.90
2018-07-10T08:38:26.531Z,65.50
2018-07-10T08:40:04.150Z,64.06
2018-07-10T08:41:46.041Z,65.32
2018-07-10T08:43:21.979Z,65.97
2018-07-10T08:44:58.232Z,65.39
2018-07-10T08:46:35.184Z,65.23
2018-07-10T08:48:12.580Z,65.56
2018-07-10T08:49:49.087Z,66.68
2018-07-10T08:53:36.055Z,67.17
2018-07-10T08:55:15.508Z,66.86
2018-07-10T08:56:53.520Z,66.11
2018-07-10T08:58:33.715Z,66.65
2018-07-10T09:00:22.352Z,66.01
2018-07-10T09:01:57.795Z,65.82
2018-07-10T09:03:35.542Z,66.61
2018-07-10T09:05:14.265Z,65.94
2018-07-10T09:06:55.620Z,65.91
2018-07-10T09:08:43.417Z,64.98
2018-07-10T09:10:20.978Z,65.76
2018-07-10T09:11:57.596Z,66.06
2018-07-10T09:13:35.003Z,66.42
2018-07-10T09:15:16.998Z,67.36
2018-07-10T09:16:54.471Z,68.02
2018-07-10T09:18:31.531Z,68.98
2018-07-10T09:20:08.980Z,69.24
2018-07-10T09:21:56.562Z,70.07
2018-07-10T09:23:34.952Z,70.11
2018-07-10T09:27:01.925Z,70.79
2018-07-10T09:28:42.976Z,70.42
2018-07-10T09:30:21.786Z,70.71
2018-07-10T09:31:58.102Z,72.29
2018-07-10T09:33:34.830Z,73.19
2018-07-10T09:35:11.596Z,72.71
2018-07-10T09:36:48.804Z,73.33
2018-07-10T09:38:24.920Z,73.78
2018-07-10T09:40:06.310Z,73.70
2018-07-10T09:41:48.653Z,73.66
2018-07-10T09:43:27.645Z,73.87
2018-07-10T09:45:08.141Z,73.71
2018-07-10T09:46:44.878Z,74.19
2018-07-10T09:48:25.293Z,74.34
2018-07-10T09:50:03.810Z,74.67
2018-07-10T09:51:42.652Z,74.29
2018-07-10T09:53:19.572Z,74.22
2018-07-10T09:54:57.359Z,73.12
2018-07-10T09:56:34.589Z,72.77
2018-07-10T09:58:11.504Z,75.29
2018-07-10T09:59:49.856Z,74.81
2018-07-10T10:01:33.255Z,76.28
2018-07-10T10:03:14.864Z,76.12
2018-07-10T10:05:20.387Z,76.92
2018-07-10T10:06:56.997Z,76.30
2018-07-10T10:08:35.090Z,78.17
2018-07-10T10:10:11.123Z,78.47
2018-07-10T10:11:48.347Z,78.59
2018-07-10T10:13:24.938Z,78.74
2018-07-10T10:15:09.451Z,78.37
2018-07-10T10:16:49.343Z,78.66
2018-07-10T10:18:28.479Z,79.73
2018-07-10T10:20:08.187Z,80.02
2018-07-10T10:21:51.609Z,79.50
2018-07-10T10:23:27.529Z,80.07
2018-07-10T10:25:11.439Z,80.32
2018-07-10T10:26:55.806Z,79.45
2018-07-10T10:28:34.592Z,79.84
2018-07-10T10:30:13.094Z,80.59
2018-07-10T10:31:52.226Z,80.54
2018-07-10T10:33:31.620Z,79.49
2018-07-10T10:35:16.548Z,79.34
2018-07-10T10:36:53.992Z,79.44
2018-07-10T10:38:29.612Z,78.78
2018-07-10T10:40:11.882Z,79.13
2018-07-10T10:41:51.112Z,79.03
2018-07-10T10:43:34.326Z,78.03
2018-07-10T10:45:12.360Z,79.99
2018-07-10T10:46:48.939Z,79.17
2018-07-10T10:48:26.062Z,78.47
2018-07-10T10:50:03.037Z,77.31
2018-07-10T10:51:39.347Z,76.96
2018-07-10T10:53:14.417Z,76.98
2018-07-10T10:54:52.283Z,77.49
2018-07-10T10:56:28.487Z,76.63
2018-07-10T10:58:05.670Z,77.68
2018-07-10T10:59:42.518Z,77.97
2018-07-10T11:01:22.959Z,77.06
2018-07-10T11:02:58.871Z,77.29
2018-07-10T11:04:37.354Z,77.13
2018-07-10T11:06:14.516Z,77.45
2018-07-10T11:07:51.007Z,78.23
2018-07-10T11:09:28.092Z,78.52
2018-07-10T11:11:06.544Z,79.61
2018-07-10T11:12:44.006Z,79.57
2018-07-10T11:14:20.445Z,79.21
2018-07-10T11:16:01.628Z,79.20
2018-07-10T11:17:55.289Z,79.71
2018-07-10T11:19:44.701Z,80.56
2018-07-10T11:22:29.193Z,79.50
2018-07-10T11:24:05.734Z,79.76
2018-07-10T11:25:48.124Z,81.82
2018-07-10T11:27:37.665Z,81.43
2018-07-10T11:29:15.376Z,81.23
2018-07-10T11:30:57.453Z,82.67
2018-07-10T11:32:37.722Z,81.20
2018-07-10T11:34:15.350Z,81.61
2018-07-10T11:35:53.595Z,82.13
2018-07-10T11:37:29.737Z,81.17
2018-07-10T11:39:14.055Z,81.69
2018-07-10T11:40:51.206Z,80.69
2018-07-10T11:42:30.370Z,81.09
2018-07-10T11:44:14.036Z,81.38
2018-07-10T11:45:50.691Z,81.65
2018-07-10T11:47:26.304Z,81.62
2018-07-10T11:49:03.950Z,81.40
2018-07-10T11:50:40.287Z,80.82
2018-07-10T11:52:17.801Z,80.74
2018-07-10T11:55:02.372Z,80.77
2018-07-10T11:56:45.384Z,81.77
2018-07-10T11:58:22.539Z,81.50
2018-07-10T12:00:01.049Z,80.10
2018-07-10T12:01:37.066Z,81.17
2018-07-10T12:03:12.990Z,80.64
2018-07-10T12:04:54.735Z,81.03
2018-07-10T12:06:31.886Z,81.42
2018-07-10T12:08:14.130Z,80.71
2018-07-10T12:10:00.835Z,81.03
2018-07-10T12:11:37.507Z,80.01
2018-07-10T12:13:17.450Z,79.45
2018-07-10T12:14:59.847Z,81.17
2018-07-10T12:16:37.116Z,79.63
2018-07-10T12:18:16.244Z,80.08
2018-07-10T12:19:54.426Z,79.18
2018-07-10T12:21:32.289Z,79.81
2018-07-10T12:23:14.923Z,79.82
2018-07-10T12:24:51.620Z,79.93
2018-07-10T12:26:29.229Z,79.84
2018-07-10T12:29:55.120Z,78.69
2018-07-10T12:31:34.166Z,77.86
2018-07-10T12:34:55.839Z,77.37
2018-07-10T12:36:35.027Z,77.00
2018-07-10T12:38:12.370Z,78.27
2018-07-10T12:39:49.324Z,77.78
2018-07-10T12:41:27.910Z,78.08
2018-07-10T12:43:06.749Z,77.76
2018-07-10T12:44:43.624Z,78.60
2018-07-10T12:46:19.276Z,77.13
2018-07-10T12:47:56.679Z,76.88
2018-07-10T12:49:39.317Z,75.90
2018-07-10T12:51:21.018Z,76.41
2018-07-10T12:53:04.445Z,76.72
2018-07-10T12:54:42.746Z,76.80
2018-07-10T12:56:24.648Z,77.82
2018-07-10T12:58:05.981Z,77.55
2018-07-10T12:59:48.756Z,77.05
2018-07-10T13:01:31.231Z,77.65
2018-07-10T13:03:12.733Z,77.20
2018-07-10T13:04:53.559Z,76.92
2018-07-10T13:08:20.515Z,76.05
2018-07-10T13:09:59.459Z,77.41
2018-07-10T13:11:38.519Z,75.13
2018-07-10T13:15:03.212Z,75.34
2018-07-10T13:16:41.225Z,75.82
2018-07-10T13:18:51.106Z,75.67
2018-07-10T13:20:29.221Z,75.95
2018-07-10T13:22:07.133Z,74.70
2018-07-10T13:23:45.077Z,74.36
2018-07-10T13:25:25.373Z,74.46
2018-07-10T13:27:08.266Z,74.45
2018-07-10T13:28:45.126Z,75.00
2018-07-10T13:30:20.547Z,75.36
2018-07-10T13:31:58.083Z,74.66
2018-07-10T13:33:34.939Z,75.42
2018-07-10T13:35:10.559Z,74.86
2018-07-10T13:37:04.008Z,75.39
2018-07-10T13:38:42.747Z,75.34
2018-07-10T13:40:19.689Z,75.41
2018-07-10T13:41:55.706Z,76.48
2018-07-10T13:43:32.586Z,76.38
2018-07-10T13:45:08.705Z,75.37
2018-07-10T13:46:45.015Z,76.59
2018-07-10T13:48:23.601Z,76.88
2018-07-10T13:50:00.175Z,76.61
2018-07-10T13:51:41.274Z,76.00
2018-07-10T13:53:17.634Z,75.79
2018-07-10T13:54:55.993Z,76.10
2018-07-10T13:56:33.536Z,76.88
2018-07-10T13:58:21.325Z,77.12
2018-07-10T13:59:58.311Z,76.93
2018-07-10T14:01:35.118Z,77.41
2018-07-10T14:03:10.544Z,77.63
2018-07-10T14:04:48.823Z,77.88
2018-07-10T14:06:27.341Z,78.32
2018-07-10T14:08:04.595Z,78.70
2018-07-10T14:09:44.147Z,78.33
2018-07-10T14:11:26.700Z,78.81
2018-07-10T14:14:48.629Z,78.08
2018-07-10T14:16:26.652Z,79.05
2018-07-10T14:18:09.219Z,78.39
2018-07-10T14:19:46.289Z,79.42
2018-07-10T14:21:38.706Z,79.09
2018-07-10T14:23:15.316Z,79.23
2018-07-10T14:25:01.740Z,79.64
2018-07-10T14:26:37.512Z,79.34
2018-07-10T14:28:15.637Z,79.43
2018-07-10T14:29:54.765Z,79.55
2018-07-10T14:31:32.996Z,79.47
2018-07-10T14:33:11.273Z,78.27
2018-07-10T14:34:55.859Z,77.66
2018-07-10T14:36:39.664Z,77.34
2018-07-10T14:38:26.782Z,76.78
2018-07-10T14:40:03.608Z,76.58
2018-07-10T14:41:39.598Z,75.70
2018-07-10T14:43:22.029Z,77.03
2018-07-10T14:45:00.688Z,75.52
2018-07-10T14:46:38.701Z,74.91
2018-07-10T14:48:18.976Z,75.14
2018-07-10T14:49:54.759Z,75.24
2018-07-10T14:51:43.886Z,76.45
2018-07-10T14:53:21.889Z,75.86
2018-07-10T14:56:39.481Z,74.74
2018-07-10T14:58:22.804Z,74.75
2018-07-10T14:59:59.570Z,74.98
2018-07-10T15:01:37.158Z,75.35
2018-07-10T15:03:27.705Z,75.46
2018-07-10T15:05:05.749Z,75.75
2018-07-10T15:06:41.680Z,75.08
2018-07-10T15:08:23.713Z,75.39
2018-07-10T15:10:00.410Z,75.30
2018-07-10T15:11:37.630Z,75.16
2018-07-10T15:13:13.870Z,75.56
2018-07-10T15:14:52.327Z,75.05
2018-07-10T15:16:28.438Z,76.59
2018-07-10T15:18:10.026Z,76.00
2018-07-10T15:19:47.761Z,75.52
2018-07-10T15:21:25.794Z,76.03
2018-07-10T15:23:06.277Z,75.65
2018-07-10T15:24:41.853Z,76.60
2018-07-10T15:26:16.943Z,77.13
2018-07-10T15:27:53.469Z,77.78
2018-07-10T15:29:29.826Z,77.06
2018-07-10T15:31:05.299Z,77.82
2018-07-10T15:32:41.401Z,78.48
2018-07-10T15:34:18.251Z,79.56
2018-07-10T15:35:53.250Z,79.42
2018-07-10T15:37:33.846Z,80.22
2018-07-10T15:39:09.468Z,80.09
2018-07-10T15:40:46.095Z,79.57
2018-07-10T15:42:21.756Z,80.76
2018-07-10T15:44:01.154Z,80.64
2018-07-10T15:45:38.752Z,81.74
2018-07-10T15:47:16.753Z,82.57
2018-07-10T15:50:36.263Z,82.61
2018-07-10T15:52:12.508Z,82.53
2018-07-10T15:53:52.509Z,82.29
2018-07-10T15:55:29.696Z,83.18
2018-07-10T15:57:07.312Z,82.90
2018-07-10T15:58:44.542Z,83.12
2018-07-10T16:00:25.079Z,83.23
2018-07-10T16:02:06.101Z,83.56
2018-07-10T16:03:46.434Z,83.56
2018-07-10T16:05:24.845Z,83.66
2018-07-10T16:07:11.263Z,82.94
2018-07-10T16:08:57.871Z,83.62
2018-07-10T16:10:36.705Z,83.78
2018-07-10T16:12:14.631Z,84.09
2018-07-10T16:13:56.563Z,83.77
2018-07-10T16:15:33.937Z,84.52
2018-07-10T16:17:24.077Z,84.85
2018-07-10T16:19:08.736Z,84.42
2018-07-10T16:20:50.004Z,84.79
2018-07-10T16:23:34.192Z,84.64
2018-07-10T16:25:14.115Z,84.81
2018-07-10T16:26:50.328Z,85.28
2018-07-10T16:28:30.889Z,84.94
2018-07-10T16:30:09.610Z,85.27
2018-07-10T16:31:47.199Z,85.08
2018-07-10T16:33:35.334Z,84.81
2018-07-10T16:35:11.497Z,85.34
2018-07-10T16:36:47.982Z,85.03
2018-07-10T16:38:24.748Z,84.87
2018-07-10T16:40:00.310Z,85.76
2018-07-10T16:41:43.208Z,84.98
2018-07-10T16:43:27.290Z,85.16
2018-07-10T16:45:06.484Z,85.36
2018-07-10T16:46:47.498Z,85.28
2018-07-10T16:49:32.158Z,86.07
2018-07-10T16:51:17.724Z,85.77
2018-07-10T16:53:03.591Z,86.08
2018-07-10T16:54:45.759Z,85.75
2018-07-10T16:56:23.153Z,85.55
2018-07-10T16:58:02.370Z,86.34
2018-07-10T16:59:42.909Z,85.72
2018-07-10T17:01:19.863Z,86.23
2018-07-10T17:02:57.710Z,86.53
2018-07-10T17:04:34.056Z,86.56
2018-07-10T17:06:11.540Z,86.54
2018-07-10T17:07:50.591Z,87.00
2018-07-10T17:09:28.615Z,86.92
2018-07-10T17:11:04.280Z,86.42
2018-07-10T17:12:42.429Z,86.28
2018-07-10T17:14:19.316Z,86.53
2018-07-10T17:15:55.493Z,87.01
2018-07-10T17:17:32.380Z,87.05
2018-07-10T17:19:10.234Z,87.33
2018-07-10T17:20:49.678Z,87.00
2018-07-10T17:22:28.682Z,85.76
2018-07-10T17:24:11.390Z,84.76
2018-07-10T17:25:49.990Z,85.72
2018-07-10T17:27:33.318Z,84.17
2018-07-10T17:29:13.607Z,83.85
2018-07-10T17:30:48.741Z,85.08
2018-07-10T17:32:25.326Z,85.32
2018-07-10T17:34:04.687Z,85.20
2018-07-10T17:35:43.304Z,84.86
2018-07-10T17:37:20.899Z,85.25
2018-07-10T17:40:58.366Z,85.19
2018-07-10T17:42:38.083Z,84.63
2018-07-10T17:44:18.585Z,84.73
2018-07-10T17:45:59.485Z,85.00
2018-07-10T17:47:37.227Z,84.53
2018-07-10T17:49:13.555Z,83.96
2018-07-10T17:50:56.675Z,84.13
2018-07-10T17:52:38.421Z,84.91
2018-07-10T17:54:18.221Z,84.06
2018-07-10T17:56:08.343Z,84.68
2018-07-10T17:57:55.090Z,85.12
2018-07-10T17:59:43.185Z,85.81
2018-07-10T18:01:26.942Z,84.79
2018-07-10T18:03:09.702Z,85.31
2018-07-10T18:04:50.229Z,85.49
2018-07-10T18:06:28.479Z,85.41
2018-07-10T18:08:23.413Z,86.13
2018-07-10T18:10:09.828Z,86.47
2018-07-10T18:12:01.311Z,86.49
2018-07-10T18:13:40.985Z,86.84
2018-07-10T18:15:18.743Z,86.86
2018-07-10T18:16:58.717Z,86.46
2018-07-10T18:18:38.592Z,86.48
2018-07-10T18:20:26.550Z,86.27
2018-07-10T18:22:14.316Z,86.26
2018-07-10T18:24:01.822Z,87.29
2018-07-10T18:27:34.895Z,86.81
2018-07-10T18:29:13.745Z,87.07
2018-07-10T18:30:51.261Z,86.87
2018-07-10T18:32:33.404Z,86.38
2018-07-10T18:34:19.849Z,86.53
2018-07-10T18:35:58.811Z,87.02
2018-07-10T18:37:39.063Z,86.49
2018-07-10T18:39:33.539Z,86.61
2018-07-10T18:41:16.177Z,86.75
2018-07-10T18:42:56.591Z,87.10
2018-07-10T18:44:39.026Z,85.96
2018-07-10T18:46:21.740Z,86.17
2018-07-10T18:48:00.490Z,86.25
2018-07-10T18:49:46.962Z,86.02
2018-07-10T18:51:31.583Z,85.72
2018-07-10T18:53:15.291Z,86.36
2018-07-10T18:54:54.049Z,86.86
2018-07-10T18:56:41.279Z,86.77
2018-07-10T18:58:38.326Z,87.58
2018-07-10T19:00:28.565Z,87.21
2018-07-10T19:02:18.176Z,87.77
2018-07-10T19:05:57.941Z,88.18
2018-07-10T19:07:45.316Z,88.69
2018-07-10T19:09:38.357Z,88.23
2018-07-10T19:11:31.291Z,88.20
2018-07-10T19:13:08.812Z,88.26
2018-07-10T19:14:46.377Z,88.46
2018-07-10T19:16:25.813Z,87.77
2018-07-10T19:18:10.503Z,87.73
2018-07-10T19:19:50.114Z,87.95
2018-07-10T19:21:36.709Z,88.20
2018-07-10T19:23:48.533Z,88.59
2018-07-10T19:25:30.502Z,88.48
2018-07-10T19:27:12.311Z,88.10
2018-07-10T19:28:54.329Z,88.38
2018-07-10T19:30:41.671Z,88.73
2018-07-10T19:32:19.064Z,88.85
2018-07-10T19:33:58.345Z,88.98
2018-07-10T19:35:42.094Z,88.50
2018-07-10T19:37:22.805Z,88.58
2018-07-10T19:39:06.786Z,88.42
2018-07-10T19:40:53.324Z,87.30
2018-07-10T19:42:31.456Z,86.92
2018-07-10T19:44:09.489Z,85.75
2018-07-10T19:45:46.724Z,86.45
2018-07-10T19:47:24.940Z,86.68
2018-07-10T19:49:01.206Z,86.30
2018-07-10T19:50:42.624Z,86.82
2018-07-10T19:52:26.278Z,86.68
2018-07-10T19:54:18.726Z,87.04
2018-07-10T19:55:57.747Z,86.28
2018-07-10T19:58:42.782Z,86.50
2018-07-10T20:00:27.405Z,86.21
2018-07-10T20:02:05.925Z,86.59
2018-07-10T20:03:50.108Z,86.47
2018-07-10T20:05:57.744Z,86.50
2018-07-10T20:07:43.471Z,87.12
2018-07-10T20:09:53.286Z,86.87
2018-07-10T20:11:43.016Z,87.65
2018-07-10T20:17:54.061Z,87.76
2018-07-10T20:19:52.173Z,88.58
2018-07-10T20:21:39.882Z,88.22
2018-07-10T20:23:25.342Z,87.84
2018-07-10T20:25:11.259Z,88.33
2018-07-10T20:30:54.695Z,88.89
2018-07-10T20:32:41.217Z,88.93
2018-07-10T20:34:41.769Z,89.18
2018-07-10T20:38:19.729Z,89.43
2018-07-10T20:39:55.556Z,89.07
2018-07-10T20:41:46.593Z,88.67
2018-07-10T20:43:23.848Z,88.95
2018-07-10T20:45:16.252Z,88.90
2018-07-10T20:47:05.915Z,88.87
2018-07-10T20:48:57.574Z,88.67
2018-07-10T20:51:12.448Z,88.61
2018-07-10T20:53:29.052Z,88.39
2018-07-10T20:55:09.751Z,88.35
2018-07-10T20:56:58.611Z,88.81
2018-07-10T20:58:45.781Z,88.94
2018-07-10T21:02:38.603Z,88.93
2018-07-10T21:05:00.629Z,88.56
2018-07-10T21:07:01.504Z,89.09
2018-07-10T21:09:18.588Z,88.92
2018-07-10T21:12:08.360Z,88.78
2018-07-10T21:13:59.181Z,88.82
2018-07-10T21:15:53.537Z,89.05
2018-07-10T21:19:43.741Z,89.08
2018-07-10T21:22:35.932Z,89.00
2018-07-10T21:24:18.963Z,89.56
2018-07-10T21:26:20.692Z,89.86
2018-07-10T21:30:13.470Z,89.58
2018-07-10T21:32:13.304Z,89.72
2018-07-10T21:34:02.991Z,89.25
2018-07-10T21:35:53.491Z,90.00
2018-07-10T21:37:46.677Z,89.69
2018-07-10T21:39:34.660Z,90.23
2018-07-10T21:43:25.112Z,89.99
2018-07-10T21:45:17.380Z,90.00
2018-07-10T21:47:03.616Z,90.21
2018-07-10T21:50:52.249Z,90.06
2018-07-10T21:52:29.921Z,89.93
2018-07-10T21:54:06.159Z,90.73
2018-07-10T21:55:42.320Z,90.96
2018-07-10T21:57:25.685Z,90.87
2018-07-10T21:59:01.821Z,90.65
2018-07-10T22:01:51.721Z,90.35
2018-07-10T22:03:28.680Z,90.59
2018-07-10T22:05:10.727Z,90.29
2018-07-10T22:06:50.789Z,90.63
2018-07-10T22:08:33.069Z,90.65
2018-07-10T22:10:13.643Z,91.25
2018-07-10T22:11:49.877Z,90.95
2018-07-10T22:13:26.929Z,91.49
2018-07-10T22:15:07.322Z,90.90
2018-07-10T22:16:47.087Z,90.60
2018-07-10T22:18:26.091Z,90.68
2018-07-10T22:20:06.870Z,90.66
2018-07-10T22:21:44.192Z,90.64
2018-07-10T22:23:23.732Z,90.78
2018-07-10T22:25:03.290Z,90.44
2018-07-10T22:26:40.976Z,90.40
2018-07-10T22:28:25.254Z,90.09
2018-07-10T22:32:11.178Z,90.47
2018-07-10T22:33:48.088Z,90.16
2018-07-10T22:35:29.627Z,90.54
2018-07-10T22:37:08.563Z,90.71
2018-07-10T22:38:45.117Z,90.30
2018-07-10T22:40:21.750Z,90.60
2018-07-10T22:41:58.421Z,90.36
2018-07-10T22:43:34.721Z,90.75
2018-07-10T22:45:16.480Z,90.91
2018-07-10T22:46:52.192Z,90.57
2018-07-10T22:48:28.340Z,90.52
2018-07-10T22:50:09.390Z,90.36